sensor_id;sensor_type;location;lat;lon;timestamp;P1;durP1;ratioP1;P2;durP2;ratioP2
59960;SDS011;55902;-37.980;-63.602;2023-05-10T00:02:07;39.00;;;20.00;;
59960;SDS011;55902;-37.980;-63.602;2023-05-10T00:04:34;45.95;;;27.30;;
59960;SDS011;55902;-37.980;-63.602;2023-05-10T00:07:01;53.70;;;33.83;;
59960;SDS011;55902;-37.980;-63.602;2023-05-10T00:09:28;69.80;;;38.88;;
59960;SDS011;55902;-37.980;-63.602;2023-05-10T00:11:55;79.53;;;41.90;;
59960;SDS011;55902;-37.980;-63.602;2023-05-10T00:14:23;69.47;;;37.88;;
59960;SDS011;55902;-37.980;-63.602;2023-05-10T00:16:50;56.15;;;35.53;;
59960;SDS011;55902;-37.980;-63.602;2023-05-10T00:19:17;48.38;;;28.40;;
59960;SDS011;55902;-37.980;-63.602;2023-05-10T00:21:47;43.17;;;25.27;;
59960;SDS011;55902;-37.980;-63.602;2023-05-10T00:24:14;40.95;;;23.42;;
59960;SDS011;55902;-37.980;-63.602;2023-05-10T00:26:41;28.52;;;18.25;;
59960;SDS011;55902;-37.980;-63.602;2023-05-10T00:29:08;28.48;;;18.08;;
59960;SDS011;55902;-37.980;-63.602;2023-05-10T00:31:35;29.80;;;18.20;;
59960;SDS011;55902;-37.980;-63.602;2023-05-10T00:34:02;27.52;;;16.75;;
59960;SDS011;55902;-37.980;-63.602;2023-05-10T00:36:30;24.10;;;16.10;;
59960;SDS011;55902;-37.980;-63.602;2023-05-10T00:38:57;27.77;;;17.35;;
59960;SDS011;55902;-37.980;-63.602;2023-05-10T00:41:24;30.13;;;16.83;;
59960;SDS011;55902;-37.980;-63.602;2023-05-10T00:43:51;31.30;;;18.63;;
59960;SDS011;55902;-37.980;-63.602;2023-05-10T00:46:18;32.40;;;18.60;;
59960;SDS011;55902;-37.980;-63.602;2023-05-10T00:48:45;23.85;;;15.80;;
59960;SDS011;55902;-37.980;-63.602;2023-05-10T00:51:13;35.17;;;19.17;;
59960;SDS011;55902;-37.980;-63.602;2023-05-10T00:53:40;26.25;;;16.80;;
59960;SDS011;55902;-37.980;-63.602;2023-05-10T00:56:07;26.60;;;16.02;;
59960;SDS011;55902;-37.980;-63.602;2023-05-10T00:58:34;31.17;;;17.35;;
59960;SDS011;55902;-37.980;-63.602;2023-05-10T01:01:01;22.75;;;13.52;;
59960;SDS011;55902;-37.980;-63.602;2023-05-10T01:03:30;17.58;;;10.00;;
59960;SDS011;55902;-37.980;-63.602;2023-05-10T01:05:58;23.52;;;13.15;;
59960;SDS011;55902;-37.980;-63.602;2023-05-10T01:08:25;12.88;;;8.85;;
59960;SDS011;55902;-37.980;-63.602;2023-05-10T01:10:53;10.02;;;6.95;;
59960;SDS011;55902;-37.980;-63.602;2023-05-10T01:15:54;9.38;;;5.80;;
59960;SDS011;55902;-37.980;-63.602;2023-05-10T01:18:22;9.80;;;4.90;;
59960;SDS011;55902;-37.980;-63.602;2023-05-10T01:20:54;7.78;;;4.88;;
59960;SDS011;55902;-37.980;-63.602;2023-05-10T01:29:24;6.35;;;4.28;;
59960;SDS011;55902;-37.980;-63.602;2023-05-10T01:43:26;6.13;;;5.10;;
59960;SDS011;55902;-37.980;-63.602;2023-05-10T01:48:41;6.60;;;5.35;;
59960;SDS011;55902;-37.980;-63.602;2023-05-10T01:51:19;6.55;;;5.20;;
59960;SDS011;55902;-37.980;-63.602;2023-05-10T01:53:54;6.55;;;5.05;;
59960;SDS011;55902;-37.980;-63.602;2023-05-10T01:56:26;6.28;;;4.60;;
59960;SDS011;55902;-37.980;-63.602;2023-05-10T01:58:55;5.47;;;4.53;;
59960;SDS011;55902;-37.980;-63.602;2023-05-10T02:11:31;6.45;;;4.85;;
59960;SDS011;55902;-37.980;-63.602;2023-05-10T02:13:59;6.75;;;4.03;;
59960;SDS011;55902;-37.980;-63.602;2023-05-10T02:16:27;5.10;;;3.80;;
59960;SDS011;55902;-37.980;-63.602;2023-05-10T02:18:56;9.18;;;3.80;;
59960;SDS011;55902;-37.980;-63.602;2023-05-10T02:21:25;4.07;;;3.58;;
59960;SDS011;55902;-37.980;-63.602;2023-05-10T02:23:53;5.30;;;3.50;;
59960;SDS011;55902;-37.980;-63.602;2023-05-10T02:26:23;3.38;;;3.00;;
59960;SDS011;55902;-37.980;-63.602;2023-05-10T02:28:51;4.15;;;3.30;;
59960;SDS011;55902;-37.980;-63.602;2023-05-10T02:31:20;3.47;;;2.90;;
59960;SDS011;55902;-37.980;-63.602;2023-05-10T02:33:48;4.85;;;2.92;;
59960;SDS011;55902;-37.980;-63.602;2023-05-10T02:36:16;3.35;;;2.75;;
59960;SDS011;55902;-37.980;-63.602;2023-05-10T02:38:45;5.60;;;2.70;;
59960;SDS011;55902;-37.980;-63.602;2023-05-10T02:41:15;2.80;;;2.50;;
59960;SDS011;55902;-37.980;-63.602;2023-05-10T02:43:44;3.33;;;2.60;;
59960;SDS011;55902;-37.980;-63.602;2023-05-10T02:46:12;3.72;;;3.30;;
59960;SDS011;55902;-37.980;-63.602;2023-05-10T02:48:39;3.42;;;2.97;;
59960;SDS011;55902;-37.980;-63.602;2023-05-10T02:51:07;3.88;;;3.30;;
59960;SDS011;55902;-37.980;-63.602;2023-05-10T02:53:36;3.50;;;3.20;;
59960;SDS011;55902;-37.980;-63.602;2023-05-10T02:56:28;3.95;;;3.30;;
59960;SDS011;55902;-37.980;-63.602;2023-05-10T02:59:02;6.05;;;5.50;;
59960;SDS011;55902;-37.980;-63.602;2023-05-10T03:01:29;5.57;;;5.07;;
59960;SDS011;55902;-37.980;-63.602;2023-05-10T03:16:42;5.22;;;4.70;;
59960;SDS011;55902;-37.980;-63.602;2023-05-10T03:19:17;4.15;;;3.75;;
59960;SDS011;55902;-37.980;-63.602;2023-05-10T03:21:57;4.25;;;3.70;;
59960;SDS011;55902;-37.980;-63.602;2023-05-10T03:24:29;4.75;;;4.35;;
59960;SDS011;55902;-37.980;-63.602;2023-05-10T03:26:58;5.80;;;5.30;;
59960;SDS011;55902;-37.980;-63.602;2023-05-10T03:29:28;6.03;;;5.43;;
59960;SDS011;55902;-37.980;-63.602;2023-05-10T03:32:00;5.75;;;5.15;;
59960;SDS011;55902;-37.980;-63.602;2023-05-10T03:34:27;6.18;;;5.68;;
59960;SDS011;55902;-37.980;-63.602;2023-05-10T03:36:59;7.60;;;6.90;;
59960;SDS011;55902;-37.980;-63.602;2023-05-10T03:39:26;6.93;;;6.32;;
59960;SDS011;55902;-37.980;-63.602;2023-05-10T03:41:53;7.60;;;6.55;;
59960;SDS011;55902;-37.980;-63.602;2023-05-10T03:44:21;6.43;;;5.93;;
59960;SDS011;55902;-37.980;-63.602;2023-05-10T03:46:48;6.05;;;5.45;;
59960;SDS011;55902;-37.980;-63.602;2023-05-10T03:49:15;6.03;;;5.43;;
59960;SDS011;55902;-37.980;-63.602;2023-05-10T03:51:42;5.30;;;4.80;;
59960;SDS011;55902;-37.980;-63.602;2023-05-10T03:54:08;4.63;;;4.22;;
59960;SDS011;55902;-37.980;-63.602;2023-05-10T03:56:35;4.97;;;4.47;;
59960;SDS011;55902;-37.980;-63.602;2023-05-10T03:59:03;4.57;;;4.13;;
59960;SDS011;55902;-37.980;-63.602;2023-05-10T04:01:33;5.78;;;4.50;;
59960;SDS011;55902;-37.980;-63.602;2023-05-10T04:04:00;4.28;;;3.88;;
59960;SDS011;55902;-37.980;-63.602;2023-05-10T04:06:27;3.90;;;3.60;;
59960;SDS011;55902;-37.980;-63.602;2023-05-10T04:08:54;3.58;;;3.28;;
59960;SDS011;55902;-37.980;-63.602;2023-05-10T04:11:21;4.13;;;3.70;;
59960;SDS011;55902;-37.980;-63.602;2023-05-10T04:17:11;3.90;;;3.60;;
59960;SDS011;55902;-37.980;-63.602;2023-05-10T04:27:02;2.25;;;2.00;;
59960;SDS011;55902;-37.980;-63.602;2023-05-10T04:29:29;1.90;;;1.80;;
59960;SDS011;55902;-37.980;-63.602;2023-05-10T04:31:56;2.65;;;2.00;;
59960;SDS011;55902;-37.980;-63.602;2023-05-10T04:34:24;2.53;;;2.10;;
59960;SDS011;55902;-37.980;-63.602;2023-05-10T04:36:51;2.78;;;2.38;;
59960;SDS011;55902;-37.980;-63.602;2023-05-10T04:39:18;2.10;;;1.80;;
59960;SDS011;55902;-37.980;-63.602;2023-05-10T04:41:44;2.15;;;1.90;;
59960;SDS011;55902;-37.980;-63.602;2023-05-10T04:44:11;4.05;;;1.88;;
59960;SDS011;55902;-37.980;-63.602;2023-05-10T04:46:38;2.38;;;1.80;;
59960;SDS011;55902;-37.980;-63.602;2023-05-10T04:49:06;1.75;;;1.65;;
59960;SDS011;55902;-37.980;-63.602;2023-05-10T04:51:33;2.03;;;1.70;;
59960;SDS011;55902;-37.980;-63.602;2023-05-10T04:54:00;2.20;;;1.90;;
59960;SDS011;55902;-37.980;-63.602;2023-05-10T04:56:27;2.00;;;1.80;;
59960;SDS011;55902;-37.980;-63.602;2023-05-10T04:58:54;2.17;;;1.85;;
59960;SDS011;55902;-37.980;-63.602;2023-05-10T05:01:21;1.90;;;1.80;;
59960;SDS011;55902;-37.980;-63.602;2023-05-10T05:03:48;2.00;;;1.80;;
59960;SDS011;55902;-37.980;-63.602;2023-05-10T05:06:15;2.00;;;1.80;;
59960;SDS011;55902;-37.980;-63.602;2023-05-10T05:08:42;2.58;;;1.75;;
59960;SDS011;55902;-37.980;-63.602;2023-05-10T05:11:09;1.92;;;1.80;;
59960;SDS011;55902;-37.980;-63.602;2023-05-10T05:13:36;2.45;;;1.80;;
59960;SDS011;55902;-37.980;-63.602;2023-05-10T05:16:04;2.55;;;1.70;;
59960;SDS011;55902;-37.980;-63.602;2023-05-10T05:18:31;3.22;;;1.80;;
59960;SDS011;55902;-37.980;-63.602;2023-05-10T05:20:58;1.85;;;1.75;;
59960;SDS011;55902;-37.980;-63.602;2023-05-10T05:23:26;2.25;;;2.05;;
59960;SDS011;55902;-37.980;-63.602;2023-05-10T05:25:53;2.45;;;1.98;;
59960;SDS011;55902;-37.980;-63.602;2023-05-10T05:28:20;2.10;;;1.90;;
59960;SDS011;55902;-37.980;-63.602;2023-05-10T05:30:47;2.00;;;1.90;;
59960;SDS011;55902;-37.980;-63.602;2023-05-10T05:33:14;2.45;;;2.10;;
59960;SDS011;55902;-37.980;-63.602;2023-05-10T05:35:42;2.20;;;2.00;;
59960;SDS011;55902;-37.980;-63.602;2023-05-10T05:41:34;2.35;;;1.80;;
59960;SDS011;55902;-37.980;-63.602;2023-05-10T05:44:01;2.10;;;1.80;;
59960;SDS011;55902;-37.980;-63.602;2023-05-10T05:46:28;1.92;;;1.83;;
59960;SDS011;55902;-37.980;-63.602;2023-05-10T05:48:55;2.03;;;1.80;;
59960;SDS011;55902;-37.980;-63.602;2023-05-10T05:51:24;1.80;;;1.70;;
59960;SDS011;55902;-37.980;-63.602;2023-05-10T05:53:52;2.60;;;1.80;;
59960;SDS011;55902;-37.980;-63.602;2023-05-10T05:56:19;1.83;;;1.73;;
59960;SDS011;55902;-37.980;-63.602;2023-05-10T05:58:52;1.80;;;1.70;;
59960;SDS011;55902;-37.980;-63.602;2023-05-10T06:01:19;2.08;;;1.83;;
59960;SDS011;55902;-37.980;-63.602;2023-05-10T06:03:46;2.58;;;2.00;;
59960;SDS011;55902;-37.980;-63.602;2023-05-10T06:06:14;1.90;;;1.80;;
59960;SDS011;55902;-37.980;-63.602;2023-05-10T06:08:41;1.95;;;1.85;;
59960;SDS011;55902;-37.980;-63.602;2023-05-10T06:11:08;2.20;;;1.90;;
59960;SDS011;55902;-37.980;-63.602;2023-05-10T06:13:35;1.90;;;1.80;;
59960;SDS011;55902;-37.980;-63.602;2023-05-10T06:16:02;2.95;;;2.00;;
59960;SDS011;55902;-37.980;-63.602;2023-05-10T06:18:29;1.90;;;1.80;;
59960;SDS011;55902;-37.980;-63.602;2023-05-10T06:20:56;2.42;;;1.90;;
59960;SDS011;55902;-37.980;-63.602;2023-05-10T06:23:23;1.80;;;1.70;;
59960;SDS011;55902;-37.980;-63.602;2023-05-10T06:25:51;2.10;;;1.85;;
59960;SDS011;55902;-37.980;-63.602;2023-05-10T06:28:18;2.67;;;1.70;;
59960;SDS011;55902;-37.980;-63.602;2023-05-10T06:30:45;2.67;;;1.90;;
59960;SDS011;55902;-37.980;-63.602;2023-05-10T06:33:12;1.80;;;1.70;;
59960;SDS011;55902;-37.980;-63.602;2023-05-10T06:35:39;2.22;;;1.80;;
59960;SDS011;55902;-37.980;-63.602;2023-05-10T06:38:06;2.20;;;2.00;;
59960;SDS011;55902;-37.980;-63.602;2023-05-10T06:40:33;2.60;;;1.80;;
59960;SDS011;55902;-37.980;-63.602;2023-05-10T06:43:01;2.10;;;1.90;;
59960;SDS011;55902;-37.980;-63.602;2023-05-10T06:45:28;2.00;;;1.80;;
59960;SDS011;55902;-37.980;-63.602;2023-05-10T06:47:58;2.53;;;2.28;;
59960;SDS011;55902;-37.980;-63.602;2023-05-10T06:50:25;2.10;;;1.90;;
59960;SDS011;55902;-37.980;-63.602;2023-05-10T06:52:52;1.88;;;1.77;;
59960;SDS011;55902;-37.980;-63.602;2023-05-10T06:55:20;1.90;;;1.80;;
59960;SDS011;55902;-37.980;-63.602;2023-05-10T06:57:47;1.88;;;1.77;;
59960;SDS011;55902;-37.980;-63.602;2023-05-10T07:00:16;2.35;;;1.80;;
59960;SDS011;55902;-37.980;-63.602;2023-05-10T07:02:43;1.90;;;1.80;;
59960;SDS011;55902;-37.980;-63.602;2023-05-10T07:05:10;1.90;;;1.80;;
59960;SDS011;55902;-37.980;-63.602;2023-05-10T07:07:37;1.90;;;1.80;;
59960;SDS011;55902;-37.980;-63.602;2023-05-10T07:10:05;1.80;;;1.70;;
59960;SDS011;55902;-37.980;-63.602;2023-05-10T07:12:33;1.80;;;1.70;;
59960;SDS011;55902;-37.980;-63.602;2023-05-10T07:15:00;2.42;;;1.75;;
59960;SDS011;55902;-37.980;-63.602;2023-05-10T07:17:27;2.08;;;1.98;;
59960;SDS011;55902;-37.980;-63.602;2023-05-10T07:19:54;1.90;;;1.80;;
59960;SDS011;55902;-37.980;-63.602;2023-05-10T07:22:21;1.80;;;1.70;;
59960;SDS011;55902;-37.980;-63.602;2023-05-10T07:24:48;2.90;;;1.92;;
59960;SDS011;55902;-37.980;-63.602;2023-05-10T07:27:15;1.90;;;1.80;;
59960;SDS011;55902;-37.980;-63.602;2023-05-10T07:29:42;2.20;;;1.70;;
59960;SDS011;55902;-37.980;-63.602;2023-05-10T07:32:09;2.00;;;1.90;;
59960;SDS011;55902;-37.980;-63.602;2023-05-10T07:34:36;1.90;;;1.80;;
59960;SDS011;55902;-37.980;-63.602;2023-05-10T07:37:03;1.95;;;1.80;;
59960;SDS011;55902;-37.980;-63.602;2023-05-10T07:49:38;2.00;;;1.80;;
59960;SDS011;55902;-37.980;-63.602;2023-05-10T07:52:05;1.85;;;1.75;;
59960;SDS011;55902;-37.980;-63.602;2023-05-10T07:54:33;2.80;;;2.00;;
59960;SDS011;55902;-37.980;-63.602;2023-05-10T07:57:00;2.00;;;1.90;;
59960;SDS011;55902;-37.980;-63.602;2023-05-10T07:59:28;2.10;;;1.90;;
59960;SDS011;55902;-37.980;-63.602;2023-05-10T08:01:55;1.98;;;1.88;;
59960;SDS011;55902;-37.980;-63.602;2023-05-10T08:04:22;2.30;;;1.90;;
59960;SDS011;55902;-37.980;-63.602;2023-05-10T08:06:49;3.05;;;1.80;;
59960;SDS011;55902;-37.980;-63.602;2023-05-10T08:09:19;2.33;;;1.88;;
59960;SDS011;55902;-37.980;-63.602;2023-05-10T08:11:49;2.78;;;1.90;;
59960;SDS011;55902;-37.980;-63.602;2023-05-10T08:14:16;2.83;;;1.80;;
59960;SDS011;55902;-37.980;-63.602;2023-05-10T08:16:43;1.90;;;1.80;;
59960;SDS011;55902;-37.980;-63.602;2023-05-10T08:19:10;2.95;;;1.80;;
59960;SDS011;55902;-37.980;-63.602;2023-05-10T08:21:37;2.30;;;1.90;;
59960;SDS011;55902;-37.980;-63.602;2023-05-10T08:24:06;1.80;;;1.70;;
59960;SDS011;55902;-37.980;-63.602;2023-05-10T08:26:33;2.60;;;1.77;;
59960;SDS011;55902;-37.980;-63.602;2023-05-10T08:29:00;1.80;;;1.70;;
59960;SDS011;55902;-37.980;-63.602;2023-05-10T08:31:27;1.90;;;1.80;;
59960;SDS011;55902;-37.980;-63.602;2023-05-10T08:33:54;2.67;;;1.70;;
59960;SDS011;55902;-37.980;-63.602;2023-05-10T08:36:21;1.80;;;1.70;;
59960;SDS011;55902;-37.980;-63.602;2023-05-10T08:38:50;1.90;;;1.80;;
59960;SDS011;55902;-37.980;-63.602;2023-05-10T08:41:19;2.55;;;1.90;;
59960;SDS011;55902;-37.980;-63.602;2023-05-10T08:43:52;2.63;;;1.80;;
59960;SDS011;55902;-37.980;-63.602;2023-05-10T08:46:20;1.80;;;1.70;;
59960;SDS011;55902;-37.980;-63.602;2023-05-10T08:48:49;1.70;;;1.60;;
59960;SDS011;55902;-37.980;-63.602;2023-05-10T08:51:18;1.90;;;1.70;;
59960;SDS011;55902;-37.980;-63.602;2023-05-10T08:53:46;2.17;;;1.80;;
59960;SDS011;55902;-37.980;-63.602;2023-05-10T08:56:15;2.10;;;1.70;;
59960;SDS011;55902;-37.980;-63.602;2023-05-10T08:58:43;1.92;;;1.65;;
59960;SDS011;55902;-37.980;-63.602;2023-05-10T09:01:10;2.28;;;1.70;;
59960;SDS011;55902;-37.980;-63.602;2023-05-10T09:03:39;2.47;;;1.80;;
59960;SDS011;55902;-37.980;-63.602;2023-05-10T09:06:07;2.60;;;1.70;;
59960;SDS011;55902;-37.980;-63.602;2023-05-10T09:08:34;1.88;;;1.70;;
59960;SDS011;55902;-37.980;-63.602;2023-05-10T09:11:02;2.30;;;1.70;;
59960;SDS011;55902;-37.980;-63.602;2023-05-10T09:13:29;1.80;;;1.70;;
59960;SDS011;55902;-37.980;-63.602;2023-05-10T09:15:57;2.00;;;1.80;;
59960;SDS011;55902;-37.980;-63.602;2023-05-10T09:18:25;2.13;;;1.80;;
59960;SDS011;55902;-37.980;-63.602;2023-05-10T09:20:55;4.57;;;1.90;;
59960;SDS011;55902;-37.980;-63.602;2023-05-10T09:23:22;1.70;;;1.60;;
59960;SDS011;55902;-37.980;-63.602;2023-05-10T09:26:03;1.90;;;1.80;;
59960;SDS011;55902;-37.980;-63.602;2023-05-10T09:28:31;1.98;;;1.80;;
59960;SDS011;55902;-37.980;-63.602;2023-05-10T09:31:16;2.40;;;2.20;;
59960;SDS011;55902;-37.980;-63.602;2023-05-10T09:33:44;2.28;;;2.05;;
59960;SDS011;55902;-37.980;-63.602;2023-05-10T09:36:12;3.65;;;2.40;;
59960;SDS011;55902;-37.980;-63.602;2023-05-10T09:41:18;3.13;;;2.60;;
59960;SDS011;55902;-37.980;-63.602;2023-05-10T09:43:48;2.60;;;2.40;;
59960;SDS011;55902;-37.980;-63.602;2023-05-10T09:46:16;3.55;;;2.40;;
59960;SDS011;55902;-37.980;-63.602;2023-05-10T09:48:47;2.50;;;2.30;;
59960;SDS011;55902;-37.980;-63.602;2023-05-10T09:51:23;2.60;;;2.40;;
59960;SDS011;55902;-37.980;-63.602;2023-05-10T09:56:49;4.80;;;2.47;;
59960;SDS011;55902;-37.980;-63.602;2023-05-10T09:59:16;3.13;;;2.30;;
59960;SDS011;55902;-37.980;-63.602;2023-05-10T10:01:48;3.08;;;2.00;;
59960;SDS011;55902;-37.980;-63.602;2023-05-10T10:04:16;2.28;;;2.10;;
59960;SDS011;55902;-37.980;-63.602;2023-05-10T10:06:45;4.97;;;2.60;;
59960;SDS011;55902;-37.980;-63.602;2023-05-10T10:09:12;3.20;;;2.90;;
59960;SDS011;55902;-37.980;-63.602;2023-05-10T10:11:40;3.50;;;3.20;;
59960;SDS011;55902;-37.980;-63.602;2023-05-10T10:14:07;6.32;;;4.60;;
59960;SDS011;55902;-37.980;-63.602;2023-05-10T10:16:35;5.28;;;4.78;;
59960;SDS011;55902;-37.980;-63.602;2023-05-10T10:19:02;5.50;;;5.00;;
59960;SDS011;55902;-37.980;-63.602;2023-05-10T10:21:29;4.63;;;3.95;;
59960;SDS011;55902;-37.980;-63.602;2023-05-10T10:23:57;4.57;;;3.70;;
59960;SDS011;55902;-37.980;-63.602;2023-05-10T10:26:24;2.78;;;2.58;;
59960;SDS011;55902;-37.980;-63.602;2023-05-10T10:31:47;3.65;;;2.30;;
59960;SDS011;55902;-37.980;-63.602;2023-05-10T10:34:28;2.25;;;2.05;;
59960;SDS011;55902;-37.980;-63.602;2023-05-10T10:36:57;2.42;;;2.20;;
59960;SDS011;55902;-37.980;-63.602;2023-05-10T10:39:29;4.57;;;2.53;;
59960;SDS011;55902;-37.980;-63.602;2023-05-10T10:41:57;7.88;;;4.10;;
59960;SDS011;55902;-37.980;-63.602;2023-05-10T10:44:26;6.22;;;2.92;;
59960;SDS011;55902;-37.980;-63.602;2023-05-10T10:57:52;6.55;;;3.53;;
59960;SDS011;55902;-37.980;-63.602;2023-05-10T11:00:35;7.80;;;3.00;;
59960;SDS011;55902;-37.980;-63.602;2023-05-10T11:03:06;5.18;;;2.55;;
59960;SDS011;55902;-37.980;-63.602;2023-05-10T11:08:30;5.57;;;2.55;;
59960;SDS011;55902;-37.980;-63.602;2023-05-10T11:13:29;6.82;;;3.05;;
59960;SDS011;55902;-37.980;-63.602;2023-05-10T11:19:09;10.52;;;4.20;;
59960;SDS011;55902;-37.980;-63.602;2023-05-10T11:24:31;12.93;;;4.57;;
59960;SDS011;55902;-37.980;-63.602;2023-05-10T11:26:59;10.27;;;3.83;;
59960;SDS011;55902;-37.980;-63.602;2023-05-10T11:29:26;9.75;;;4.35;;
59960;SDS011;55902;-37.980;-63.602;2023-05-10T11:31:56;8.20;;;4.32;;
59960;SDS011;55902;-37.980;-63.602;2023-05-10T11:37:00;12.32;;;4.43;;
59960;SDS011;55902;-37.980;-63.602;2023-05-10T11:39:28;9.90;;;3.80;;
59960;SDS011;55902;-37.980;-63.602;2023-05-10T11:41:57;9.50;;;4.68;;
59960;SDS011;55902;-37.980;-63.602;2023-05-10T11:44:31;14.18;;;4.30;;
59960;SDS011;55902;-37.980;-63.602;2023-05-10T11:46:59;9.98;;;4.03;;
59960;SDS011;55902;-37.980;-63.602;2023-05-10T11:49:27;9.95;;;3.55;;
59960;SDS011;55902;-37.980;-63.602;2023-05-10T11:52:06;10.45;;;3.42;;
59960;SDS011;55902;-37.980;-63.602;2023-05-10T11:54:34;7.78;;;3.15;;
59960;SDS011;55902;-37.980;-63.602;2023-05-10T11:57:01;10.23;;;3.90;;
59960;SDS011;55902;-37.980;-63.602;2023-05-10T11:59:33;6.63;;;3.63;;
59960;SDS011;55902;-37.980;-63.602;2023-05-10T12:02:27;9.43;;;5.10;;
59960;SDS011;55902;-37.980;-63.602;2023-05-10T12:04:55;10.55;;;5.25;;
59960;SDS011;55902;-37.980;-63.602;2023-05-10T12:07:23;8.25;;;4.13;;
59960;SDS011;55902;-37.980;-63.602;2023-05-10T12:12:45;6.10;;;3.10;;
59960;SDS011;55902;-37.980;-63.602;2023-05-10T12:15:21;6.88;;;3.00;;
59960;SDS011;55902;-37.980;-63.602;2023-05-10T12:17:50;6.25;;;3.90;;
59960;SDS011;55902;-37.980;-63.602;2023-05-10T12:20:27;7.63;;;3.60;;
59960;SDS011;55902;-37.980;-63.602;2023-05-10T12:22:56;29.10;;;11.43;;
59960;SDS011;55902;-37.980;-63.602;2023-05-10T12:25:33;24.92;;;10.65;;
59960;SDS011;55902;-37.980;-63.602;2023-05-10T12:28:08;10.07;;;4.05;;
59960;SDS011;55902;-37.980;-63.602;2023-05-10T12:30:40;5.72;;;2.85;;
59960;SDS011;55902;-37.980;-63.602;2023-05-10T12:33:08;9.63;;;3.13;;
59960;SDS011;55902;-37.980;-63.602;2023-05-10T12:41:02;8.88;;;2.80;;
59960;SDS011;55902;-37.980;-63.602;2023-05-10T12:43:35;7.00;;;2.60;;
59960;SDS011;55902;-37.980;-63.602;2023-05-10T12:48:37;9.93;;;2.55;;
59960;SDS011;55902;-37.980;-63.602;2023-05-10T12:51:09;6.13;;;2.13;;
59960;SDS011;55902;-37.980;-63.602;2023-05-10T12:53:49;9.82;;;2.47;;
59960;SDS011;55902;-37.980;-63.602;2023-05-10T12:56:22;6.90;;;1.92;;
59960;SDS011;55902;-37.980;-63.602;2023-05-10T12:59:12;8.00;;;3.00;;
59960;SDS011;55902;-37.980;-63.602;2023-05-10T13:01:40;7.03;;;2.53;;
59960;SDS011;55902;-37.980;-63.602;2023-05-10T13:04:07;4.28;;;2.00;;
59960;SDS011;55902;-37.980;-63.602;2023-05-10T13:06:34;4.75;;;1.73;;
59960;SDS011;55902;-37.980;-63.602;2023-05-10T13:09:08;4.88;;;1.70;;
59960;SDS011;55902;-37.980;-63.602;2023-05-10T13:11:35;5.77;;;1.70;;
59960;SDS011;55902;-37.980;-63.602;2023-05-10T13:14:02;5.28;;;1.80;;
59960;SDS011;55902;-37.980;-63.602;2023-05-10T13:16:32;5.13;;;2.00;;
59960;SDS011;55902;-37.980;-63.602;2023-05-10T13:19:00;5.25;;;2.10;;
59960;SDS011;55902;-37.980;-63.602;2023-05-10T13:21:29;5.38;;;1.80;;
59960;SDS011;55902;-37.980;-63.602;2023-05-10T13:24:19;5.65;;;1.80;;
59960;SDS011;55902;-37.980;-63.602;2023-05-10T13:26:47;5.88;;;1.88;;
59960;SDS011;55902;-37.980;-63.602;2023-05-10T13:29:14;5.40;;;1.85;;
59960;SDS011;55902;-37.980;-63.602;2023-05-10T13:31:43;5.28;;;1.80;;
59960;SDS011;55902;-37.980;-63.602;2023-05-10T13:34:13;4.40;;;1.63;;
59960;SDS011;55902;-37.980;-63.602;2023-05-10T13:36:42;6.32;;;2.03;;
59960;SDS011;55902;-37.980;-63.602;2023-05-10T13:39:12;4.15;;;1.42;;
59960;SDS011;55902;-37.980;-63.602;2023-05-10T13:41:39;5.15;;;1.52;;
59960;SDS011;55902;-37.980;-63.602;2023-05-10T13:44:07;3.55;;;1.50;;
59960;SDS011;55902;-37.980;-63.602;2023-05-10T13:46:35;7.45;;;2.08;;
59960;SDS011;55902;-37.980;-63.602;2023-05-10T13:49:04;7.13;;;1.90;;
59960;SDS011;55902;-37.980;-63.602;2023-05-10T13:51:34;5.28;;;1.70;;
59960;SDS011;55902;-37.980;-63.602;2023-05-10T13:54:04;10.00;;;6.13;;
59960;SDS011;55902;-37.980;-63.602;2023-05-10T13:57:15;7.32;;;1.80;;
59960;SDS011;55902;-37.980;-63.602;2023-05-10T13:59:47;5.40;;;1.60;;
59960;SDS011;55902;-37.980;-63.602;2023-05-10T14:02:14;4.82;;;1.65;;
59960;SDS011;55902;-37.980;-63.602;2023-05-10T14:04:42;5.22;;;1.50;;
59960;SDS011;55902;-37.980;-63.602;2023-05-10T14:07:09;6.90;;;1.88;;
59960;SDS011;55902;-37.980;-63.602;2023-05-10T14:09:43;6.15;;;1.98;;
59960;SDS011;55902;-37.980;-63.602;2023-05-10T14:12:10;7.03;;;1.67;;
59960;SDS011;55902;-37.980;-63.602;2023-05-10T14:14:42;7.25;;;1.73;;
59960;SDS011;55902;-37.980;-63.602;2023-05-10T14:17:11;6.78;;;1.70;;
59960;SDS011;55902;-37.980;-63.602;2023-05-10T14:19:46;5.88;;;1.73;;
59960;SDS011;55902;-37.980;-63.602;2023-05-10T14:22:14;8.02;;;1.65;;
59960;SDS011;55902;-37.980;-63.602;2023-05-10T14:24:41;9.35;;;2.50;;
59960;SDS011;55902;-37.980;-63.602;2023-05-10T14:27:12;7.30;;;1.88;;
59960;SDS011;55902;-37.980;-63.602;2023-05-10T14:29:39;8.07;;;1.50;;
59960;SDS011;55902;-37.980;-63.602;2023-05-10T14:32:08;5.97;;;1.70;;
59960;SDS011;55902;-37.980;-63.602;2023-05-10T14:34:39;7.45;;;1.67;;
59960;SDS011;55902;-37.980;-63.602;2023-05-10T14:37:13;3.97;;;1.40;;
59960;SDS011;55902;-37.980;-63.602;2023-05-10T14:39:42;7.00;;;1.85;;
59960;SDS011;55902;-37.980;-63.602;2023-05-10T14:42:20;5.95;;;1.80;;
59960;SDS011;55902;-37.980;-63.602;2023-05-10T14:45:09;5.00;;;1.30;;
59960;SDS011;55902;-37.980;-63.602;2023-05-10T14:47:38;5.50;;;1.70;;
59960;SDS011;55902;-37.980;-63.602;2023-05-10T14:50:06;4.53;;;1.45;;
59960;SDS011;55902;-37.980;-63.602;2023-05-10T14:52:35;5.90;;;1.60;;
59960;SDS011;55902;-37.980;-63.602;2023-05-10T14:57:36;5.25;;;1.77;;
59960;SDS011;55902;-37.980;-63.602;2023-05-10T15:00:03;5.57;;;1.60;;
59960;SDS011;55902;-37.980;-63.602;2023-05-10T15:02:32;5.45;;;1.52;;
59960;SDS011;55902;-37.980;-63.602;2023-05-10T15:05:03;4.40;;;1.48;;
59960;SDS011;55902;-37.980;-63.602;2023-05-10T15:07:30;4.95;;;1.50;;
59960;SDS011;55902;-37.980;-63.602;2023-05-10T15:09:58;6.95;;;1.80;;
59960;SDS011;55902;-37.980;-63.602;2023-05-10T15:12:25;5.32;;;1.60;;
59960;SDS011;55902;-37.980;-63.602;2023-05-10T15:14:56;6.07;;;1.60;;
59960;SDS011;55902;-37.980;-63.602;2023-05-10T15:17:48;4.97;;;1.50;;
59960;SDS011;55902;-37.980;-63.602;2023-05-10T15:20:16;6.53;;;1.60;;
59960;SDS011;55902;-37.980;-63.602;2023-05-10T15:25:28;4.68;;;1.60;;
59960;SDS011;55902;-37.980;-63.602;2023-05-10T15:27:56;5.05;;;1.30;;
59960;SDS011;55902;-37.980;-63.602;2023-05-10T15:30:24;6.90;;;1.70;;
59960;SDS011;55902;-37.980;-63.602;2023-05-10T15:33:18;3.15;;;1.40;;
59960;SDS011;55902;-37.980;-63.602;2023-05-10T15:35:45;5.05;;;1.63;;
59960;SDS011;55902;-37.980;-63.602;2023-05-10T15:38:13;4.38;;;1.45;;
59960;SDS011;55902;-37.980;-63.602;2023-05-10T15:40:40;4.93;;;1.48;;
59960;SDS011;55902;-37.980;-63.602;2023-05-10T15:43:10;4.97;;;1.63;;
59960;SDS011;55902;-37.980;-63.602;2023-05-10T15:45:38;5.00;;;1.58;;
59960;SDS011;55902;-37.980;-63.602;2023-05-10T15:48:07;5.75;;;1.80;;
59960;SDS011;55902;-37.980;-63.602;2023-05-10T15:50:34;5.85;;;2.00;;
59960;SDS011;55902;-37.980;-63.602;2023-05-10T15:53:01;5.63;;;2.00;;
59960;SDS011;55902;-37.980;-63.602;2023-05-10T15:55:29;5.90;;;1.65;;
59960;SDS011;55902;-37.980;-63.602;2023-05-10T15:57:56;4.15;;;1.52;;
59960;SDS011;55902;-37.980;-63.602;2023-05-10T16:00:24;4.72;;;1.70;;
59960;SDS011;55902;-37.980;-63.602;2023-05-10T16:02:51;6.22;;;1.83;;
59960;SDS011;55902;-37.980;-63.602;2023-05-10T16:05:21;6.63;;;1.60;;
59960;SDS011;55902;-37.980;-63.602;2023-05-10T16:07:52;4.82;;;1.60;;
59960;SDS011;55902;-37.980;-63.602;2023-05-10T16:10:23;3.53;;;1.33;;
59960;SDS011;55902;-37.980;-63.602;2023-05-10T16:12:53;7.50;;;1.60;;
59960;SDS011;55902;-37.980;-63.602;2023-05-10T16:15:27;7.32;;;1.63;;
59960;SDS011;55902;-37.980;-63.602;2023-05-10T16:17:55;8.55;;;1.95;;